sensor_id;sensor_type;location;lat;lon;timestamp;pressure;altitude;pressure_sealevel;temperature;humidity
68628;BME280;55611;48.602;9.490;2023-02-20T22:14:37;97410;;;13;51
68628;BME280;55611;48.602;9.490;2023-02-20T22:17:08;97410;;;13.1;51
68628;BME280;55611;48.602;9.490;2023-02-20T22:19:38;97410;;;13.1;51
68628;BME280;55611;48.602;9.490;2023-02-20T22:22:09;97410;;;13.1;51
68628;BME280;55611;48.602;9.490;2023-02-20T22:24:39;97410;;;13.1;51
68628;BME280;55611;48.602;9.490;2023-02-20T22:27:10;97420;;;13;51
68628;BME280;55611;48.602;9.490;2023-02-20T22:29:40;97420;;;13;51
68628;BME280;55611;48.602;9.490;2023-02-20T22:32:11;97420;;;13.1;51
68628;BME280;55611;48.602;9.490;2023-02-20T22:34:41;97420;;;13.1;51
68628;BME280;55611;48.602;9.490;2023-02-20T22:37:12;97410;;;13;51
68628;BME280;55611;48.602;9.490;2023-02-20T22:39:42;97410;;;13;51
68628;BME280;55611;48.602;9.490;2023-02-20T22:42:13;97420;;;13;51
68628;BME280;55611;48.602;9.490;2023-02-20T22:44:43;97410;;;13;51
68628;BME280;55611;48.602;9.490;2023-02-20T22:47:14;97410;;;12.9;51
68628;BME280;55611;48.602;9.490;2023-02-20T22:49:44;97410;;;12.9;51
68628;BME280;55611;48.602;9.490;2023-02-20T22:52:15;97410;;;12.9;51
68628;BME280;55611;48.602;9.490;2023-02-20T22:54:45;97410;;;12.9;51
68628;BME280;55611;48.602;9.490;2023-02-20T22:57:16;97410;;;12.9;51
68628;BME280;55611;48.602;9.490;2023-02-20T22:59:46;97410;;;13;51
68628;BME280;55611;48.602;9.490;2023-02-20T23:02:17;97400;;;12.9;51
68628;BME280;55611;48.602;9.490;2023-02-20T23:04:47;97410;;;13;51
68628;BME280;55611;48.602;9.490;2023-02-20T23:07:18;97400;;;13;51
68628;BME280;55611;48.602;9.490;2023-02-20T23:09:48;97400;;;13.1;51
68628;BME280;55611;48.602;9.490;2023-02-20T23:12:19;97410;;;13;51
68628;BME280;55611;48.602;9.490;2023-02-20T23:14:49;97400;;;12.9;51
68628;BME280;55611;48.602;9.490;2023-02-20T23:17:20;97400;;;12.8;51
68628;BME280;55611;48.602;9.490;2023-02-20T23:19:50;97400;;;12.8;50.5
68628;BME280;55611;48.602;9.490;2023-02-20T23:22:21;97400;;;12.8;51
68628;BME280;55611;48.602;9.490;2023-02-20T23:24:52;97400;;;12.9;51
68628;BME280;55611;48.602;9.490;2023-02-20T23:27:22;97400;;;12.8;50.5
68628;BME280;55611;48.602;9.490;2023-02-20T23:29:52;97390;;;12.8;50.5
68628;BME280;55611;48.602;9.490;2023-02-20T23:32:23;97400;;;12.8;50.5
68628;BME280;55611;48.602;9.490;2023-02-20T23:34:54;97400;;;12.8;50.5
68628;BME280;55611;48.602;9.490;2023-02-20T23:37:24;97400;;;12.7;50.5
68628;BME280;55611;48.602;9.490;2023-02-20T23:39:55;97400;;;12.4;50.5
68628;BME280;55611;48.602;9.490;2023-02-20T23:42:25;97400;;;12;50.5
68628;BME280;55611;48.602;9.490;2023-02-20T23:44:56;97400;;;11.7;50.5
68628;BME280;55611;48.602;9.490;2023-02-20T23:47:26;97400;;;11.5;50.5
68628;BME280;55611;48.602;9.490;2023-02-20T23:49:57;97400;;;11.2;50.5
68628;BME280;55611;48.602;9.490;2023-02-20T23:52:27;97390;;;11;50.5
68628;BME280;55611;48.602;9.490;2023-02-20T23:54:58;97400;;;10.8;50.5
68628;BME280;55611;48.602;9.490;2023-02-20T23:57:28;97400;;;10.6;50.5
68628;BME280;55611;48.602;9.490;2023-02-20T23:59:59;97390;;;10.4;50.5
